createdAt,value
2023-01-18T00:00:33.559Z,13.44
2023-01-18T00:03:16.951Z,13.36
2023-01-18T00:06:02.833Z,13.31
2023-01-18T00:08:45.928Z,13.33
2023-01-18T00:11:28.962Z,13.26
2023-01-18T00:14:12.049Z,13.28
2023-01-18T00:16:55.120Z,13.24
2023-01-18T00:19:38.224Z,13.31
2023-01-18T00:22:22.726Z,13.17
2023-01-18T00:25:06.696Z,13.11
2023-01-18T00:27:51.284Z,13.08
2023-01-18T00:30:34.377Z,13.06
2023-01-18T00:33:17.450Z,13.16
2023-01-18T00:36:07.147Z,12.86
2023-01-18T00:38:52.545Z,13.06
2023-01-18T00:41:55.803Z,13.06
2023-01-18T00:44:40.268Z,13.24
2023-01-18T00:47:24.864Z,13.42
2023-01-18T00:50:10.528Z,13.37
2023-01-18T00:53:01.156Z,13.45
2023-01-18T00:55:45.671Z,13.45
2023-01-18T00:58:29.115Z,13.50
2023-01-18T01:01:13.494Z,13.52
2023-01-18T01:04:14.264Z,13.52
2023-01-18T01:06:57.371Z,13.45
2023-01-18T01:09:40.458Z,13.34
2023-01-18T01:12:42.359Z,13.33
2023-01-18T01:15:42.736Z,13.26
2023-01-18T01:18:43.715Z,13.25
2023-01-18T01:21:44.553Z,13.17
2023-01-18T01:24:45.563Z,13.04
2023-01-18T01:27:33.101Z,13.17
2023-01-18T01:30:18.355Z,13.21
2023-01-18T01:33:01.532Z,13.26
2023-01-18T01:35:44.935Z,13.13
2023-01-18T01:38:28.418Z,13.18
2023-01-18T01:41:16.813Z,13.10
2023-01-18T01:44:05.679Z,12.96
2023-01-18T01:46:51.130Z,13.08
2023-01-18T01:49:42.691Z,13.00
2023-01-18T01:52:30.662Z,12.93
2023-01-18T01:55:21.300Z,12.89
2023-01-18T01:58:09.691Z,12.93
2023-01-18T02:00:54.496Z,12.98
2023-01-18T02:03:42.700Z,12.84
2023-01-18T02:06:32.435Z,12.90
2023-01-18T02:09:23.142Z,12.79
2023-01-18T02:12:07.119Z,12.81
2023-01-18T02:14:50.345Z,12.90
2023-01-18T02:18:00.020Z,12.84
2023-01-18T02:21:14.546Z,12.92
2023-01-18T02:24:28.085Z,12.92
2023-01-18T02:27:25.637Z,13.03
2023-01-18T02:30:18.578Z,13.20
2023-01-18T02:33:09.749Z,13.14
2023-01-18T02:35:55.027Z,13.23
2023-01-18T02:38:44.488Z,13.14
2023-01-18T02:41:47.733Z,13.16
2023-01-18T02:44:53.933Z,13.17
2023-01-18T02:47:40.626Z,13.43
2023-01-18T02:50:33.357Z,13.13
2023-01-18T02:53:17.283Z,13.21
2023-01-18T02:56:05.630Z,13.16
2023-01-18T02:58:53.881Z,13.19
2023-01-18T03:01:42.639Z,13.15
2023-01-18T03:04:32.448Z,13.18
2023-01-18T03:07:20.633Z,13.18
2023-01-18T03:10:08.280Z,13.23
2023-01-18T03:12:59.999Z,13.48
2023-01-18T03:15:49.790Z,13.42
2023-01-18T03:19:00.195Z,13.41
2023-01-18T03:21:51.490Z,13.34
2023-01-18T03:24:41.245Z,13.28
2023-01-18T03:27:42.163Z,13.34
2023-01-18T03:30:43.333Z,13.38
2023-01-18T03:33:45.954Z,13.22
2023-01-18T03:36:32.584Z,13.17
2023-01-18T03:39:21.853Z,13.13
2023-01-18T03:42:09.039Z,13.08
2023-01-18T03:44:56.939Z,12.99
2023-01-18T03:47:40.582Z,13.02
2023-01-18T03:50:28.517Z,12.89
2023-01-18T03:53:15.994Z,12.95
2023-01-18T03:56:06.425Z,12.92
2023-01-18T03:58:55.100Z,12.88
2023-01-18T04:01:38.708Z,13.05
2023-01-18T04:04:21.817Z,13.01
2023-01-18T04:07:05.137Z,13.08
2023-01-18T04:09:48.240Z,13.14
2023-01-18T04:12:34.439Z,13.15
2023-01-18T04:15:22.157Z,13.44
2023-01-18T04:18:05.743Z,13.26
2023-01-18T04:23:49.387Z,13.46
2023-01-18T04:26:34.227Z,13.45
2023-01-18T04:29:18.814Z,13.42
2023-01-18T04:32:02.156Z,13.23
2023-01-18T04:34:45.369Z,13.39
2023-01-18T04:37:31.166Z,13.32
2023-01-18T04:40:14.601Z,13.49
2023-01-18T04:42:57.975Z,13.30
2023-01-18T04:45:51.501Z,13.27
2023-01-18T04:48:35.210Z,13.16
2023-01-18T04:51:18.912Z,13.11
2023-01-18T04:54:01.990Z,13.14
2023-01-18T04:56:45.078Z,13.30
2023-01-18T04:59:28.693Z,13.23
2023-01-18T05:02:13.307Z,13.17
2023-01-18T05:04:56.665Z,13.19
2023-01-18T05:07:39.737Z,13.10
2023-01-18T05:10:23.674Z,13.48
2023-01-18T05:13:09.675Z,13.44
2023-01-18T05:15:52.761Z,13.49
2023-01-18T05:18:39.263Z,13.34
2023-01-18T05:21:22.418Z,13.08
2023-01-18T05:24:07.687Z,13.32
2023-01-18T05:26:51.023Z,13.24
2023-01-18T05:29:34.108Z,13.23
2023-01-18T05:32:18.284Z,13.23
2023-01-18T05:35:02.870Z,13.32
2023-01-18T05:37:45.879Z,13.21
2023-01-18T05:40:28.997Z,13.12
2023-01-18T05:43:12.417Z,13.10
2023-01-18T05:45:57.833Z,12.99
2023-01-18T05:48:40.972Z,13.11
2023-01-18T05:51:25.644Z,13.07
2023-01-18T05:54:08.721Z,12.90
2023-01-18T05:56:51.839Z,13.01
2023-01-18T05:59:38.001Z,12.92
2023-01-18T06:02:21.186Z,13.18
2023-01-18T06:05:04.336Z,13.27
2023-01-18T06:07:51.264Z,13.36
2023-01-18T06:10:34.321Z,13.44
2023-01-18T06:13:27.744Z,13.33
2023-01-18T06:16:13.441Z,13.24
2023-01-18T06:18:56.559Z,13.30
2023-01-18T06:21:40.000Z,13.18
2023-01-18T06:24:25.261Z,13.36
2023-01-18T06:27:08.310Z,13.58
2023-01-18T06:29:51.765Z,13.51
2023-01-18T06:32:35.551Z,13.55
2023-01-18T06:35:22.226Z,13.47
2023-01-18T06:38:07.822Z,13.78
2023-01-18T06:40:52.291Z,13.87
2023-01-18T06:43:35.361Z,13.92
2023-01-18T06:46:19.807Z,13.99
2023-01-18T06:49:03.006Z,13.89
2023-01-18T06:51:48.062Z,13.95
2023-01-18T06:54:31.341Z,14.14
2023-01-18T06:57:17.660Z,14.10
2023-01-18T07:00:02.116Z,14.05
2023-01-18T07:02:45.166Z,14.46
2023-01-18T07:05:28.237Z,17.67
2023-01-18T07:08:11.506Z,20.51
2023-01-18T07:10:55.438Z,21.57
2023-01-18T07:13:43.555Z,23.86
2023-01-18T07:16:28.687Z,24.84
2023-01-18T07:19:13.310Z,24.90
2023-01-18T07:21:56.412Z,25.90
2023-01-18T07:24:39.536Z,25.81
2023-01-18T07:27:25.467Z,26.11
2023-01-18T07:30:13.215Z,25.73
2023-01-18T07:32:56.714Z,26.13
2023-01-18T07:35:40.059Z,27.01
2023-01-18T07:38:25.974Z,27.77
2023-01-18T07:41:13.423Z,27.74
2023-01-18T07:43:56.431Z,26.83
2023-01-18T07:46:42.709Z,25.23
2023-01-18T07:49:25.817Z,27.15
2023-01-18T07:52:09.091Z,29.24
2023-01-18T07:54:54.628Z,28.35
2023-01-18T07:57:37.706Z,29.88
2023-01-18T08:00:22.324Z,31.67
2023-01-18T08:03:07.460Z,31.28
2023-01-18T08:05:50.595Z,31.58
2023-01-18T08:08:36.522Z,31.54
2023-01-18T08:11:20.545Z,28.91
2023-01-18T08:14:06.137Z,30.82
2023-01-18T08:16:57.948Z,31.44
2023-01-18T08:19:43.228Z,34.03
2023-01-18T08:22:26.445Z,35.29
2023-01-18T08:25:11.140Z,35.24
2023-01-18T08:27:54.467Z,33.74
2023-01-18T08:30:39.668Z,34.81
2023-01-18T08:33:23.695Z,37.05
2023-01-18T08:36:11.596Z,38.09
2023-01-18T08:38:58.770Z,38.06
2023-01-18T08:41:44.357Z,36.74
2023-01-18T08:44:27.510Z,33.97
2023-01-18T08:47:10.692Z,32.67
2023-01-18T08:49:53.889Z,34.68
2023-01-18T08:52:38.551Z,33.82
2023-01-18T08:55:23.548Z,33.38
2023-01-18T08:58:06.668Z,34.54
2023-01-18T09:00:50.702Z,33.93
2023-01-18T09:03:33.917Z,33.31
2023-01-18T09:06:19.657Z,32.83
2023-01-18T09:09:05.480Z,34.01
2023-01-18T09:11:52.139Z,36.35
2023-01-18T09:14:35.350Z,38.43
2023-01-18T09:17:19.433Z,38.50
2023-01-18T09:20:03.447Z,36.40
2023-01-18T09:22:50.824Z,36.67
2023-01-18T09:25:36.479Z,33.30
2023-01-18T09:28:19.609Z,31.04
2023-01-18T09:31:07.817Z,28.19
2023-01-18T09:33:54.291Z,26.05
2023-01-18T09:36:37.657Z,23.74
2023-01-18T09:39:23.684Z,23.10
2023-01-18T09:42:17.960Z,22.13
2023-01-18T09:45:02.171Z,20.74
2023-01-18T09:47:48.629Z,20.49
2023-01-18T09:50:46.077Z,20.51
2023-01-18T09:53:55.282Z,20.61
2023-01-18T09:56:50.269Z,20.35
2023-01-18T09:59:41.947Z,20.09
2023-01-18T10:02:54.140Z,20.83
2023-01-18T10:05:41.704Z,23.65
2023-01-18T10:08:29.203Z,27.01
2023-01-18T10:11:21.652Z,31.01
2023-01-18T10:14:09.901Z,32.79
2023-01-18T10:16:58.491Z,33.23
2023-01-18T10:19:42.392Z,34.39
2023-01-18T10:22:29.285Z,32.71
2023-01-18T10:25:18.956Z,34.42
2023-01-18T10:28:26.216Z,34.44
2023-01-18T10:31:22.015Z,35.69
2023-01-18T10:34:17.846Z,35.39
2023-01-18T10:37:16.820Z,36.58
2023-01-18T10:40:02.780Z,36.08
2023-01-18T10:42:48.189Z,37.58
2023-01-18T10:45:34.602Z,38.15
2023-01-18T10:48:35.471Z,36.40
2023-01-18T10:51:32.630Z,38.08
2023-01-18T10:54:24.292Z,37.20
2023-01-18T10:57:09.856Z,38.33
2023-01-18T10:59:57.729Z,36.49
2023-01-18T11:02:46.134Z,37.00
2023-01-18T11:05:31.860Z,36.99
2023-01-18T11:08:23.778Z,36.60
2023-01-18T11:11:15.303Z,38.74
2023-01-18T11:13:58.648Z,41.08
2023-01-18T11:16:58.771Z,42.29
2023-01-18T11:19:41.861Z,42.04
2023-01-18T11:22:33.033Z,40.86
2023-01-18T11:25:19.682Z,39.70
2023-01-18T11:28:07.498Z,41.00
2023-01-18T11:30:55.467Z,41.53
2023-01-18T11:33:49.139Z,39.38
2023-01-18T11:36:39.422Z,40.48
2023-01-18T11:39:33.045Z,39.63
2023-01-18T11:42:29.912Z,43.47
2023-01-18T11:45:24.366Z,41.73
2023-01-18T11:48:19.481Z,40.56
2023-01-18T11:51:11.096Z,40.33
2023-01-18T11:53:58.630Z,39.43
2023-01-18T11:56:48.621Z,40.39
2023-01-18T11:59:36.585Z,39.88
2023-01-18T12:02:56.078Z,39.30
2023-01-18T12:05:50.592Z,33.14
2023-01-18T12:08:49.536Z,28.71
2023-01-18T12:11:53.927Z,27.44
2023-01-18T12:14:56.548Z,25.39
2023-01-18T12:18:11.387Z,24.67
2023-01-18T12:21:05.379Z,23.63
2023-01-18T12:24:11.996Z,23.29
2023-01-18T12:27:01.954Z,22.72
2023-01-18T12:30:25.723Z,22.54
2023-01-18T12:33:38.239Z,22.63
2023-01-18T12:36:49.234Z,22.31
2023-01-18T12:39:53.191Z,22.17
2023-01-18T12:42:48.350Z,21.57
2023-01-18T12:45:40.378Z,21.71
2023-01-18T12:48:28.209Z,22.11
2023-01-18T12:51:15.244Z,21.99
2023-01-18T12:54:01.634Z,21.28
2023-01-18T12:56:55.368Z,20.80
2023-01-18T12:59:52.844Z,20.39
2023-01-18T13:02:48.365Z,20.52
2023-01-18T13:05:37.093Z,20.59
2023-01-18T13:08:40.450Z,20.39
2023-01-18T13:11:33.374Z,19.94
2023-01-18T13:14:26.257Z,19.93
2023-01-18T13:17:24.792Z,19.86
2023-01-18T13:20:18.328Z,19.67
2023-01-18T13:23:18.416Z,19.73
2023-01-18T13:26:18.994Z,19.73
2023-01-18T13:29:32.428Z,19.57
2023-01-18T13:32:38.456Z,19.21
2023-01-18T13:35:31.881Z,19.22
2023-01-18T13:38:40.826Z,19.07
2023-01-18T13:41:27.466Z,19.38
2023-01-18T13:44:36.544Z,19.54
2023-01-18T13:47:57.889Z,19.53
2023-01-18T13:50:50.465Z,19.20
2023-01-18T13:53:59.240Z,18.88
2023-01-18T13:57:05.209Z,18.49
2023-01-18T13:59:54.901Z,18.33
2023-01-18T14:02:43.487Z,18.16
2023-01-18T14:05:30.073Z,18.16
2023-01-18T14:08:23.257Z,18.08
2023-01-18T14:11:10.114Z,18.16
2023-01-18T14:14:06.560Z,18.36
2023-01-18T14:17:00.172Z,18.52
2023-01-18T14:20:24.867Z,18.65
2023-01-18T14:23:25.251Z,18.68
2023-01-18T14:26:12.279Z,18.54
2023-01-18T14:29:02.719Z,18.30
2023-01-18T14:31:50.069Z,18.18
2023-01-18T14:34:43.319Z,18.37
2023-01-18T14:37:29.243Z,18.57
2023-01-18T14:40:17.304Z,18.42
2023-01-18T14:43:08.171Z,18.04
2023-01-18T14:45:57.588Z,17.70
2023-01-18T14:48:48.519Z,17.45
2023-01-18T14:51:32.164Z,17.17
2023-01-18T14:54:19.350Z,17.08
2023-01-18T14:57:03.747Z,17.06
2023-01-18T14:59:57.942Z,16.95
2023-01-18T15:02:41.439Z,16.77
2023-01-18T15:05:31.093Z,16.65
2023-01-18T15:08:14.598Z,16.57
2023-01-18T15:11:01.462Z,16.31
2023-01-18T15:13:49.882Z,16.28
2023-01-18T15:16:35.320Z,16.21
2023-01-18T15:19:22.250Z,16.10
2023-01-18T15:22:09.511Z,16.05
2023-01-18T15:24:54.916Z,15.81
2023-01-18T15:27:38.142Z,15.75
2023-01-18T15:30:24.399Z,15.52
2023-01-18T15:33:11.471Z,15.60
2023-01-18T15:35:58.236Z,15.51
2023-01-18T15:38:41.441Z,15.41
2023-01-18T15:41:25.705Z,15.25
2023-01-18T15:44:35.341Z,15.35
2023-01-18T15:47:24.559Z,15.22
2023-01-18T15:50:22.591Z,15.22
2023-01-18T15:53:12.103Z,15.12
2023-01-18T15:55:58.580Z,15.17
2023-01-18T15:58:43.925Z,15.22
2023-01-18T16:01:31.859Z,15.17
2023-01-18T16:04:31.579Z,15.16
2023-01-18T16:07:43.274Z,15.05
2023-01-18T16:10:31.026Z,15.11
2023-01-18T16:13:34.625Z,14.95
2023-01-18T16:16:24.687Z,15.15
2023-01-18T16:19:17.686Z,15.03
2023-01-18T16:22:06.269Z,14.99
2023-01-18T16:24:55.410Z,15.00
2023-01-18T16:27:53.111Z,14.98
2023-01-18T16:30:39.044Z,15.02
2023-01-18T16:33:24.850Z,14.99
2023-01-18T16:36:19.959Z,14.94
2023-01-18T16:39:04.900Z,14.75
2023-01-18T16:41:55.110Z,15.02
2023-01-18T16:44:40.842Z,15.01
2023-01-18T16:47:26.298Z,14.99
2023-01-18T16:50:16.224Z,14.99
2023-01-18T16:52:59.331Z,15.00
2023-01-18T16:55:46.119Z,14.95
2023-01-18T16:58:32.964Z,14.98
2023-01-18T17:01:19.116Z,14.83
2023-01-18T17:04:03.858Z,15.01
2023-01-18T17:06:47.445Z,14.93
2023-01-18T17:09:32.505Z,14.86
2023-01-18T17:12:17.863Z,14.98
2023-01-18T17:15:12.410Z,14.83
2023-01-18T17:17:55.637Z,14.79
2023-01-18T17:20:38.879Z,14.68
2023-01-18T17:23:26.625Z,14.70
2023-01-18T17:26:14.345Z,14.46
2023-01-18T17:28:57.563Z,14.21
2023-01-18T17:31:51.759Z,13.96
2023-01-18T17:34:39.885Z,13.71
2023-01-18T17:37:22.919Z,13.66
2023-01-18T17:40:22.636Z,13.60
2023-01-18T17:43:07.217Z,13.59
2023-01-18T17:46:00.758Z,13.53
2023-01-18T17:48:50.420Z,13.43
2023-01-18T17:51:39.539Z,13.29
2023-01-18T17:54:23.043Z,13.24
2023-01-18T17:57:06.509Z,13.38
2023-01-18T17:59:55.700Z,13.28
2023-01-18T18:02:39.078Z,13.19
2023-01-18T18:05:23.694Z,13.24
2023-01-18T18:08:07.448Z,13.27
2023-01-18T18:10:50.598Z,13.28
2023-01-18T18:13:35.485Z,13.63
2023-01-18T18:16:22.378Z,13.80
2023-01-18T18:19:08.923Z,13.81
2023-01-18T18:21:53.633Z,13.83
2023-01-18T18:24:36.800Z,13.81
2023-01-18T18:27:23.125Z,13.80
2023-01-18T18:30:07.764Z,13.70
2023-01-18T18:32:54.102Z,13.60
2023-01-18T18:35:37.255Z,13.03
2023-01-18T18:38:23.870Z,12.65
2023-01-18T18:41:10.800Z,12.64
2023-01-18T18:43:56.660Z,12.54
2023-01-18T18:46:42.402Z,12.34
2023-01-18T18:49:25.610Z,12.19
2023-01-18T18:52:13.431Z,12.07
2023-01-18T18:54:58.144Z,11.93
2023-01-18T18:57:41.400Z,11.83
2023-01-18T19:00:31.421Z,11.77
2023-01-18T19:03:14.993Z,11.87
2023-01-18T19:05:58.437Z,11.97
2023-01-18T19:08:41.622Z,12.04
2023-01-18T19:11:26.124Z,12.14
2023-01-18T19:14:09.922Z,12.17
2023-01-18T19:16:54.935Z,12.12
2023-01-18T19:19:38.117Z,12.14
2023-01-18T19:22:21.183Z,12.13
2023-01-18T19:25:06.256Z,12.15
2023-01-18T19:27:55.018Z,12.11
2023-01-18T19:30:41.515Z,11.96
2023-01-18T19:33:24.841Z,12.05
2023-01-18T19:36:12.764Z,11.87
2023-01-18T19:38:59.935Z,11.91
2023-01-18T19:41:44.457Z,11.89
2023-01-18T19:44:34.929Z,11.86
2023-01-18T19:47:18.117Z,12.00
2023-01-18T19:50:04.068Z,12.03
2023-01-18T19:52:50.905Z,12.06
2023-01-18T19:55:36.665Z,12.13
2023-01-18T19:58:25.879Z,12.20
2023-01-18T20:01:34.674Z,12.11
2023-01-18T20:04:19.559Z,12.00
2023-01-18T20:07:04.715Z,11.70
2023-01-18T20:09:56.235Z,11.90
2023-01-18T20:14:26.216Z,12.08
2023-01-18T20:17:15.017Z,12.12
2023-01-18T20:19:58.471Z,12.27
2023-01-18T20:22:51.844Z,12.29
2023-01-18T20:25:35.107Z,12.27
2023-01-18T20:28:18.499Z,12.34
2023-01-18T20:31:06.086Z,12.26
2023-01-18T20:33:49.800Z,12.17
2023-01-18T20:36:35.023Z,12.08
2023-01-18T20:39:20.719Z,12.06
2023-01-18T20:42:05.977Z,12.05
2023-01-18T20:44:53.689Z,12.07
2023-01-18T20:47:38.245Z,11.90
2023-01-18T20:50:23.370Z,11.90
2023-01-18T20:53:06.540Z,11.84
2023-01-18T20:55:53.452Z,11.57
2023-01-18T20:58:36.823Z,11.64
2023-01-18T21:01:21.041Z,11.72
2023-01-18T21:04:06.326Z,11.66
2023-01-18T21:06:50.057Z,11.64
2023-01-18T21:09:33.905Z,11.58
2023-01-18T21:12:22.357Z,11.66
2023-01-18T21:15:09.246Z,11.57
2023-01-18T21:17:52.560Z,11.50
2023-01-18T21:20:37.127Z,11.44
2023-01-18T21:23:25.877Z,11.30
2023-01-18T21:29:19.319Z,11.14
2023-01-18T21:32:02.567Z,11.03
2023-01-18T21:34:47.449Z,10.91
2023-01-18T21:37:32.292Z,10.90
2023-01-18T21:40:18.637Z,10.74
2023-01-18T21:43:19.447Z,10.58
2023-01-18T21:46:04.927Z,10.62
2023-01-18T21:48:51.438Z,10.62
2023-01-18T21:51:54.493Z,10.61
2023-01-18T21:54:39.551Z,10.61
2023-01-18T21:57:22.681Z,10.53
2023-01-18T22:00:09.680Z,10.20
2023-01-18T22:02:52.787Z,10.28
2023-01-18T22:05:43.278Z,10.32
2023-01-18T22:08:29.113Z,10.28
2023-01-18T22:11:13.607Z,10.24
2023-01-18T22:13:56.726Z,10.30
2023-01-18T22:16:40.270Z,10.46
2023-01-18T22:19:23.791Z,11.00
2023-01-18T22:22:08.101Z,11.16
2023-01-18T22:24:54.239Z,11.46
2023-01-18T22:27:38.914Z,11.75
2023-01-18T22:30:24.936Z,11.69
2023-01-18T22:33:10.553Z,11.66
2023-01-18T22:35:58.585Z,11.57
2023-01-18T22:38:42.393Z,11.66
2023-01-18T22:41:27.759Z,11.72
2023-01-18T22:44:18.018Z,11.68
2023-01-18T22:47:01.535Z,11.56
2023-01-18T22:49:44.720Z,11.47
2023-01-18T22:52:31.230Z,11.56
2023-01-18T22:55:17.299Z,11.58
2023-01-18T22:58:01.857Z,11.60
2023-01-18T23:00:50.417Z,11.64
2023-01-18T23:03:36.888Z,11.62
2023-01-18T23:06:27.325Z,11.59
2023-01-18T23:09:14.693Z,11.46
2023-01-18T23:11:58.053Z,11.48
2023-01-18T23:14:59.628Z,11.43
2023-01-18T23:17:45.322Z,11.47
2023-01-18T23:20:35.219Z,11.75
2023-01-18T23:23:18.422Z,11.78
2023-01-18T23:26:05.217Z,11.82
2023-01-18T23:28:49.585Z,11.80
2023-01-18T23:31:33.810Z,11.95
2023-01-18T23:34:19.387Z,12.17
2023-01-18T23:37:02.677Z,12.15
2023-01-18T23:40:06.172Z,12.36
2023-01-18T23:43:09.454Z,12.28
2023-01-18T23:46:10.103Z,12.13
2023-01-18T23:49:10.728Z,11.92
2023-01-18T23:52:14.611Z,11.97
2023-01-18T23:55:01.238Z,12.00
2023-01-18T23:57:46.998Z,12.00
